General Aviation Weather

Text Reports

Enter one or more of the following location identifiers separated by a space:

Zip Code, Four-Character ICAO or Three-Character IATA airport codes.

METAR - Aviation Routine Weather Report
KPWT - Bremerton, Washington
Updated at 5:55 PM GMT on May 03, 2015 (10:55 AM PDT):
METAR KPWT 031755Z AUTO 02007KT 10SM CLR 14/05 A3003 RMK AO1 10140 20010 57007
TAF - Terminal Area Forecast
KPWT - Bremerton, Washington
Updated at 5:55 PM GMT on May 03, 2015 (10:55 AM PDT):
No TAF is currently available for this location.
Decoded:
No decoded TAF is available.
PIREP - Pilot Weather Report
KPWT - Bremerton, Washington
Updated at 5:55 PM GMT on May 03, 2015 (10:55 AM PDT):
No PIREP is currently available for this location.
AIRMET - Airmens Meteorological Information
KPWT - Bremerton, Washington
Updated at 5:55 PM GMT on May 03, 2015 (10:55 AM PDT):
No AIRMET is currently available for this location.
SIGMET - Significant Meteorological Information
KPWT - Bremerton, Washington
Updated at 5:55 PM GMT on May 03, 2015 (10:55 AM PDT):
No SIGMET is currently available for this location.
NOTAM - Notice to Airmen
KPWT - Bremerton, Washington
Updated at 5:55 PM GMT on May 03, 2015 (10:55 AM PDT):
No NOTAM is currently available for this location.
Forecast Area
KPWT - Bremerton, Washington
Updated at 5:55 PM GMT on May 03, 2015 (10:55 AM PDT):
No NOTAM is currently available for this location.
Aviation Weather Maps